createdAt,value
2023-04-17T00:01:43.579Z,7.70
2023-04-17T00:04:10.838Z,8.30
2023-04-17T00:06:39.435Z,7.90
2023-04-17T00:09:06.610Z,8.20
2023-04-17T00:11:33.382Z,7.00
2023-04-17T00:14:00.303Z,7.20
2023-04-17T00:16:27.553Z,7.70
2023-04-17T00:18:55.272Z,7.80
2023-04-17T00:21:22.811Z,7.20
2023-04-17T00:23:49.788Z,7.00
2023-04-17T00:26:16.676Z,7.00
2023-04-17T00:28:43.629Z,7.10
2023-04-17T00:31:10.485Z,7.30
2023-04-17T00:33:37.253Z,7.70
2023-04-17T00:36:04.501Z,7.00
2023-04-17T00:38:31.367Z,7.80
2023-04-17T00:40:58.150Z,7.10
2023-04-17T00:43:25.032Z,7.60
2023-04-17T00:45:53.410Z,7.40
2023-04-17T00:48:23.629Z,7.20
2023-04-17T00:50:50.940Z,7.90
2023-04-17T00:53:18.200Z,7.20
2023-04-17T00:55:47.876Z,7.90
2023-04-17T00:58:15.152Z,7.70
2023-04-17T01:00:42.014Z,7.20
2023-04-17T01:03:10.053Z,7.30
2023-04-17T01:05:37.942Z,6.00
2023-04-17T01:08:04.934Z,6.80
2023-04-17T01:10:31.753Z,6.10
2023-04-17T01:13:03.393Z,6.40
2023-04-17T01:15:30.902Z,6.20
2023-04-17T01:17:58.741Z,5.50
2023-04-17T01:20:29.569Z,5.90
2023-04-17T01:22:57.983Z,5.60
2023-04-17T01:25:25.801Z,5.80
2023-04-17T01:27:53.082Z,5.10
2023-04-17T01:30:20.679Z,5.10
2023-04-17T01:32:56.028Z,5.00
2023-04-17T01:35:22.912Z,5.50
2023-04-17T01:37:50.177Z,5.80
2023-04-17T01:40:17.086Z,4.70
2023-04-17T01:42:45.149Z,4.70
2023-04-17T01:45:12.097Z,5.20
2023-04-17T01:47:40.730Z,5.00
2023-04-17T01:50:10.941Z,5.10
2023-04-17T01:52:39.286Z,5.00
2023-04-17T01:55:06.468Z,5.70
2023-04-17T01:57:33.387Z,5.50
2023-04-17T02:00:00.335Z,5.70
2023-04-17T02:02:27.320Z,5.80
2023-04-17T02:04:54.706Z,4.80
2023-04-17T02:07:21.506Z,5.20
2023-04-17T02:09:48.387Z,5.40
2023-04-17T02:12:15.954Z,4.90
2023-04-17T02:14:43.078Z,6.40
2023-04-17T02:17:10.367Z,5.00
2023-04-17T02:19:37.238Z,5.90
2023-04-17T02:22:03.998Z,4.40
2023-04-17T02:24:31.387Z,4.60
2023-04-17T02:27:01.492Z,4.50
2023-04-17T02:29:28.467Z,4.20
2023-04-17T02:31:56.548Z,4.70
2023-04-17T02:34:23.385Z,4.90
2023-04-17T02:36:55.903Z,4.70
2023-04-17T02:39:24.030Z,5.20
2023-04-17T02:41:50.765Z,5.20
2023-04-17T02:44:17.488Z,6.00
2023-04-17T02:46:44.388Z,4.80
2023-04-17T02:49:11.650Z,4.70
2023-04-17T02:51:39.223Z,4.40
2023-04-17T02:54:06.169Z,4.70
2023-04-17T02:56:33.273Z,4.40
2023-04-17T02:59:00.010Z,4.30
2023-04-17T03:01:27.720Z,4.60
2023-04-17T03:03:55.833Z,5.10
2023-04-17T03:06:23.504Z,4.90
2023-04-17T03:08:51.179Z,4.80
2023-04-17T03:11:18.678Z,5.20
2023-04-17T03:13:45.702Z,4.30
2023-04-17T03:16:13.711Z,5.10
2023-04-17T03:18:41.894Z,4.30
2023-04-17T03:21:08.925Z,4.90
2023-04-17T03:23:35.832Z,5.10
2023-04-17T03:26:03.012Z,4.60
2023-04-17T03:28:31.946Z,4.30
2023-04-17T03:30:59.205Z,5.20
2023-04-17T03:33:26.692Z,4.60
2023-04-17T03:35:54.645Z,4.50
2023-04-17T03:38:21.573Z,5.40
2023-04-17T03:40:48.360Z,5.00
2023-04-17T03:43:15.280Z,5.10
2023-04-17T03:45:42.231Z,3.90
2023-04-17T03:48:09.275Z,4.30
2023-04-17T03:50:38.040Z,3.90
2023-04-17T03:53:05.124Z,4.10
2023-04-17T03:55:32.705Z,6.30
2023-04-17T03:57:59.911Z,5.30
2023-04-17T04:00:28.609Z,5.00
2023-04-17T04:02:57.216Z,5.60
2023-04-17T04:05:27.692Z,5.00
2023-04-17T04:07:55.621Z,6.00
2023-04-17T04:10:45.212Z,4.80
2023-04-17T04:13:15.250Z,5.40
2023-04-17T04:15:43.374Z,4.80
2023-04-17T04:18:11.260Z,4.80
2023-04-17T04:20:38.093Z,5.50
2023-04-17T04:25:41.503Z,4.60
2023-04-17T04:28:17.375Z,5.50
2023-04-17T04:30:50.260Z,5.70
2023-04-17T04:33:19.885Z,5.00
2023-04-17T04:35:47.625Z,5.90
2023-04-17T04:38:14.937Z,5.20
2023-04-17T04:40:51.705Z,6.30
2023-04-17T04:43:21.655Z,4.90
2023-04-17T04:45:50.965Z,6.90
2023-04-17T04:48:17.818Z,5.60
2023-04-17T04:50:45.121Z,6.30
2023-04-17T04:53:12.260Z,5.00
2023-04-17T04:55:46.856Z,6.30
2023-04-17T04:58:13.814Z,5.60
2023-04-17T05:00:41.866Z,5.70
2023-04-17T05:03:11.035Z,5.30
2023-04-17T05:05:40.528Z,4.80
2023-04-17T05:08:09.467Z,5.50
2023-04-17T05:10:36.785Z,5.90
2023-04-17T05:13:04.268Z,5.60
2023-04-17T05:15:31.872Z,5.80
2023-04-17T05:17:58.795Z,5.70
2023-04-17T05:20:25.835Z,5.60
2023-04-17T05:22:56.197Z,6.30
2023-04-17T05:25:23.099Z,5.20
2023-04-17T05:27:50.123Z,6.70
2023-04-17T05:30:17.500Z,5.60
2023-04-17T05:32:47.993Z,6.00
2023-04-17T05:35:38.480Z,6.60
2023-04-17T05:38:07.394Z,6.70
2023-04-17T05:40:34.321Z,6.10
2023-04-17T05:43:08.827Z,6.20
2023-04-17T05:45:36.246Z,5.60
2023-04-17T05:48:03.524Z,6.40
2023-04-17T05:50:30.482Z,6.50
2023-04-17T05:52:57.822Z,6.20
2023-04-17T05:55:27.457Z,6.60
2023-04-17T05:57:58.111Z,8.00
2023-04-17T06:00:25.783Z,7.40
2023-04-17T06:02:55.549Z,8.10
2023-04-17T06:05:33.402Z,7.80
2023-04-17T06:08:00.878Z,7.60
2023-04-17T06:10:27.905Z,8.90
2023-04-17T06:12:54.914Z,8.10
2023-04-17T06:15:22.190Z,7.20
2023-04-17T06:17:49.136Z,7.50
2023-04-17T06:20:16.102Z,7.60
2023-04-17T06:22:46.338Z,7.80
2023-04-17T06:25:13.393Z,7.90
2023-04-17T06:27:40.419Z,7.00
2023-04-17T06:30:08.341Z,7.50
2023-04-17T06:32:43.913Z,6.00
2023-04-17T06:35:10.989Z,6.20
2023-04-17T06:37:47.520Z,6.20
2023-04-17T06:40:14.268Z,7.50
2023-04-17T06:42:41.381Z,6.70
2023-04-17T06:45:12.037Z,6.80
2023-04-17T06:47:39.080Z,6.40
2023-04-17T06:50:06.779Z,5.90
2023-04-17T06:52:34.505Z,6.50
2023-04-17T06:55:01.885Z,5.90
2023-04-17T06:57:28.755Z,5.70
2023-04-17T06:59:55.787Z,6.10
2023-04-17T07:02:23.447Z,6.50
2023-04-17T07:04:54.418Z,6.90
2023-04-17T07:07:21.201Z,6.60
2023-04-17T07:09:47.984Z,6.50
2023-04-17T07:12:14.983Z,6.80
2023-04-17T07:14:41.997Z,8.00
2023-04-17T07:17:09.444Z,7.00
2023-04-17T07:19:38.108Z,7.10
2023-04-17T07:22:04.992Z,7.00
2023-04-17T07:24:34.554Z,6.30
2023-04-17T07:27:03.387Z,5.70
2023-04-17T07:29:31.210Z,5.60
2023-04-17T07:31:58.681Z,6.80
2023-04-17T07:34:25.697Z,8.30
2023-04-17T07:36:53.110Z,9.30
2023-04-17T07:39:19.894Z,8.60
2023-04-17T07:41:46.604Z,10.50
2023-04-17T07:44:13.383Z,7.40
2023-04-17T07:46:40.855Z,6.80
2023-04-17T07:49:09.927Z,10.50
2023-04-17T07:51:40.667Z,9.20
2023-04-17T07:54:07.641Z,6.50
2023-04-17T07:56:34.584Z,5.20
2023-04-17T07:59:01.988Z,6.10
2023-04-17T08:01:28.678Z,8.80
2023-04-17T08:03:55.725Z,6.00
2023-04-17T08:06:22.955Z,6.80
2023-04-17T08:08:49.715Z,6.50
2023-04-17T08:11:16.453Z,8.90
2023-04-17T08:13:43.252Z,7.90
2023-04-17T08:16:10.139Z,9.40
2023-04-17T08:18:37.181Z,9.70
2023-04-17T08:21:04.163Z,7.80
2023-04-17T08:23:31.121Z,7.50
2023-04-17T08:25:57.810Z,6.20
2023-04-17T08:28:24.640Z,8.20
2023-04-17T08:30:51.606Z,5.90
2023-04-17T08:33:18.357Z,6.70
2023-04-17T08:35:45.528Z,7.00
2023-04-17T08:38:14.236Z,6.70
2023-04-17T08:40:51.743Z,6.60
2023-04-17T08:43:20.535Z,6.40
2023-04-17T08:45:54.983Z,6.50
2023-04-17T08:48:23.830Z,6.10
2023-04-17T08:50:52.978Z,6.50
2023-04-17T08:53:20.583Z,6.50
2023-04-17T08:55:48.471Z,7.60
2023-04-17T08:58:15.980Z,6.50
2023-04-17T09:00:44.926Z,7.20
2023-04-17T09:03:13.908Z,6.50
2023-04-17T09:05:45.385Z,6.40
2023-04-17T09:08:13.919Z,6.30
2023-04-17T09:10:45.552Z,6.90
2023-04-17T09:13:18.237Z,7.50
2023-04-17T09:15:48.209Z,7.80
2023-04-17T09:18:26.550Z,7.40
2023-04-17T09:20:53.783Z,7.30
2023-04-17T09:23:22.271Z,5.70
2023-04-17T09:26:07.877Z,6.60
2023-04-17T09:28:35.454Z,5.80
2023-04-17T09:31:19.363Z,7.80
2023-04-17T09:34:02.233Z,6.90
2023-04-17T09:36:31.648Z,6.40
2023-04-17T09:39:00.837Z,7.10
2023-04-17T09:41:33.915Z,7.30
2023-04-17T09:44:04.801Z,7.30
2023-04-17T09:46:34.820Z,7.50
2023-04-17T09:49:10.624Z,7.20
2023-04-17T09:51:38.385Z,8.00
2023-04-17T09:54:06.518Z,7.30
2023-04-17T09:56:34.985Z,6.50
2023-04-17T09:59:06.357Z,7.30
2023-04-17T10:01:35.314Z,6.90
2023-04-17T10:04:03.538Z,6.30
2023-04-17T10:06:31.886Z,6.30
2023-04-17T10:08:58.720Z,6.20
2023-04-17T10:11:29.693Z,6.30
2023-04-17T10:14:10.259Z,6.60
2023-04-17T10:16:39.149Z,7.00
2023-04-17T10:19:27.158Z,6.40
2023-04-17T10:22:17.583Z,7.00
2023-04-17T10:24:45.306Z,7.70
2023-04-17T10:27:24.416Z,6.80
2023-04-17T10:30:02.618Z,8.50
2023-04-17T10:32:30.756Z,7.20
2023-04-17T10:34:59.923Z,6.20
2023-04-17T10:37:51.875Z,6.90
2023-04-17T10:40:35.828Z,6.60
2023-04-17T10:43:19.782Z,6.70
2023-04-17T10:46:11.770Z,6.90
2023-04-17T10:48:52.698Z,5.50
2023-04-17T10:51:27.365Z,6.70
2023-04-17T10:54:00.997Z,6.90
2023-04-17T10:56:48.918Z,7.20
2023-04-17T10:59:17.752Z,6.20
2023-04-17T11:01:47.398Z,6.60
2023-04-17T11:04:28.876Z,6.40
2023-04-17T11:06:55.960Z,5.20
2023-04-17T11:09:26.257Z,5.00
2023-04-17T11:11:53.835Z,4.50
2023-04-17T11:14:22.544Z,5.00
2023-04-17T11:16:51.124Z,5.90
2023-04-17T11:19:20.928Z,5.50
2023-04-17T11:21:49.851Z,4.80
2023-04-17T11:24:23.656Z,6.50
2023-04-17T11:26:50.695Z,6.50
2023-04-17T11:29:19.076Z,5.80
2023-04-17T11:31:47.330Z,5.50
2023-04-17T11:34:15.879Z,5.80
2023-04-17T11:36:57.433Z,6.70
2023-04-17T11:39:27.524Z,4.80
2023-04-17T11:41:56.651Z,4.60
2023-04-17T11:44:24.918Z,4.20
2023-04-17T11:46:53.395Z,4.20
2023-04-17T11:49:28.958Z,4.90
2023-04-17T11:51:59.156Z,5.00
2023-04-17T11:54:36.774Z,4.40
2023-04-17T11:57:05.766Z,5.80
2023-04-17T11:59:36.716Z,6.40
2023-04-17T12:02:06.609Z,5.00
2023-04-17T12:04:37.300Z,4.90
2023-04-17T12:07:05.828Z,5.70
2023-04-17T12:09:34.415Z,5.60
2023-04-17T12:12:04.439Z,6.30
2023-04-17T12:14:32.478Z,5.40
2023-04-17T12:16:59.333Z,6.00
2023-04-17T12:19:29.017Z,7.60
2023-04-17T12:21:56.109Z,6.50
2023-04-17T12:24:24.346Z,6.00
2023-04-17T12:26:51.473Z,6.40
2023-04-17T12:29:20.374Z,6.30
2023-04-17T12:31:51.282Z,5.40
2023-04-17T12:34:18.121Z,5.70
2023-04-17T12:36:45.814Z,5.50
2023-04-17T12:39:13.139Z,4.70
2023-04-17T12:41:39.890Z,6.50
2023-04-17T12:44:06.770Z,7.50
2023-04-17T12:46:33.551Z,4.50
2023-04-17T12:49:00.363Z,6.60
2023-04-17T12:51:27.511Z,5.40
2023-04-17T12:53:57.641Z,5.10
2023-04-17T12:56:24.552Z,4.20
2023-04-17T12:58:51.367Z,6.10
2023-04-17T13:01:18.229Z,5.10
2023-04-17T13:03:45.415Z,5.20
2023-04-17T13:06:13.250Z,4.90
2023-04-17T13:08:40.047Z,5.00
2023-04-17T13:11:07.054Z,5.10
2023-04-17T13:13:33.805Z,4.80
2023-04-17T13:16:01.165Z,4.40
2023-04-17T13:18:27.926Z,4.30
2023-04-17T13:20:56.160Z,4.40
2023-04-17T13:23:22.907Z,4.40
2023-04-17T13:25:50.167Z,3.70
2023-04-17T13:28:16.912Z,4.20
2023-04-17T13:30:43.837Z,3.90
2023-04-17T13:33:10.597Z,3.50
2023-04-17T13:35:37.277Z,4.30
2023-04-17T13:38:04.093Z,4.10
2023-04-17T13:40:30.880Z,3.80
2023-04-17T13:42:57.949Z,4.30
2023-04-17T13:45:24.858Z,4.10
2023-04-17T13:47:51.744Z,4.90
2023-04-17T13:50:18.637Z,3.80
2023-04-17T13:52:45.494Z,5.50
2023-04-17T13:55:14.096Z,4.60
2023-04-17T13:57:41.031Z,5.40
2023-04-17T14:00:08.545Z,5.30
2023-04-17T14:02:35.521Z,4.60
2023-04-17T14:05:03.128Z,4.10
2023-04-17T14:07:30.151Z,5.00
2023-04-17T14:09:57.078Z,12.10
2023-04-17T14:12:23.816Z,6.00
2023-04-17T14:14:50.697Z,5.60
2023-04-17T14:17:17.735Z,4.90
2023-04-17T14:19:44.496Z,4.00
2023-04-17T14:22:11.238Z,3.00
2023-04-17T14:24:38.026Z,4.00
2023-04-17T14:27:04.913Z,5.40
2023-04-17T14:29:31.725Z,5.70
2023-04-17T14:31:58.589Z,3.50
2023-04-17T14:34:25.368Z,5.70
2023-04-17T14:36:52.661Z,6.20
2023-04-17T14:39:19.548Z,4.60
2023-04-17T14:41:46.620Z,4.80
2023-04-17T14:44:13.946Z,6.00
2023-04-17T14:46:41.248Z,5.70
2023-04-17T14:49:08.609Z,6.20
2023-04-17T14:51:35.369Z,6.20
2023-04-17T14:54:02.162Z,6.00
2023-04-17T14:56:28.939Z,6.90
2023-04-17T14:58:55.766Z,6.50
2023-04-17T15:01:22.646Z,6.00
2023-04-17T15:03:50.617Z,5.90
2023-04-17T15:06:18.303Z,5.00
2023-04-17T15:08:45.663Z,4.90
2023-04-17T15:11:12.470Z,4.70
2023-04-17T15:13:40.183Z,4.80
2023-04-17T15:16:09.015Z,6.80
2023-04-17T15:18:35.956Z,5.10
2023-04-17T15:21:02.768Z,7.70
2023-04-17T15:23:29.466Z,8.70
2023-04-17T15:25:57.421Z,9.20
2023-04-17T15:28:25.156Z,8.00
2023-04-17T15:30:52.140Z,10.10
2023-04-17T15:33:19.539Z,12.70
2023-04-17T15:35:46.646Z,10.90
2023-04-17T15:38:13.452Z,5.70
2023-04-17T15:40:40.610Z,6.40
2023-04-17T15:43:10.098Z,4.70
2023-04-17T15:45:36.998Z,4.40
2023-04-17T15:48:03.921Z,4.30
2023-04-17T15:50:30.759Z,4.20
2023-04-17T15:52:57.472Z,4.20
2023-04-17T15:55:24.260Z,3.90
2023-04-17T15:57:51.194Z,4.20
2023-04-17T16:00:18.748Z,3.70
2023-04-17T16:02:47.377Z,5.00
2023-04-17T16:05:15.440Z,4.40
2023-04-17T16:07:42.237Z,4.50
2023-04-17T16:10:13.417Z,3.90
2023-04-17T16:12:44.805Z,3.50
2023-04-17T16:15:14.192Z,4.10
2023-04-17T16:17:41.284Z,3.60
2023-04-17T16:20:08.767Z,3.20
2023-04-17T16:22:35.495Z,3.60
2023-04-17T16:25:02.875Z,3.80
2023-04-17T16:27:32.178Z,3.60
2023-04-17T16:29:59.161Z,3.60
2023-04-17T16:32:27.139Z,5.10
2023-04-17T16:34:54.352Z,5.50
2023-04-17T16:37:21.167Z,6.10
2023-04-17T16:39:47.961Z,5.70
2023-04-17T16:42:14.670Z,7.40
2023-04-17T16:44:41.682Z,6.40
2023-04-17T16:49:38.209Z,5.70
2023-04-17T16:52:05.163Z,6.40
2023-04-17T16:54:31.984Z,8.10
2023-04-17T16:56:58.750Z,8.00
2023-04-17T16:59:25.636Z,7.80
2023-04-17T17:01:52.365Z,8.40
2023-04-17T17:04:19.208Z,8.20
2023-04-17T17:06:46.171Z,8.50
2023-04-17T17:09:13.299Z,9.20
2023-04-17T17:11:40.452Z,10.90
2023-04-17T17:14:07.248Z,11.30
2023-04-17T17:16:34.006Z,11.10
2023-04-17T17:19:00.966Z,12.20
2023-04-17T17:21:29.004Z,36.60
2023-04-17T17:23:55.788Z,55.10
2023-04-17T17:26:22.466Z,49.70
2023-04-17T17:28:52.657Z,24.40
2023-04-17T17:31:19.908Z,20.30
2023-04-17T17:33:50.430Z,15.10
2023-04-17T17:36:17.386Z,13.90
2023-04-17T17:38:44.700Z,15.30
2023-04-17T17:41:12.988Z,12.70
2023-04-17T17:43:40.440Z,18.90
2023-04-17T17:46:07.242Z,13.40
2023-04-17T17:48:34.097Z,16.20
2023-04-17T17:51:00.871Z,13.90
2023-04-17T17:53:27.953Z,19.10
2023-04-17T17:55:55.901Z,16.10
2023-04-17T17:58:23.202Z,19.60
2023-04-17T18:00:50.399Z,19.50
2023-04-17T18:03:18.280Z,18.40
2023-04-17T18:05:46.562Z,10.70
2023-04-17T18:08:14.278Z,17.90
2023-04-17T18:10:41.137Z,22.10
2023-04-17T18:13:07.921Z,34.80
2023-04-17T18:15:35.900Z,34.90
2023-04-17T18:18:02.960Z,43.70
2023-04-17T18:20:29.967Z,33.70
2023-04-17T18:22:57.204Z,23.00
2023-04-17T18:25:25.273Z,32.30
2023-04-17T18:27:52.129Z,27.90
2023-04-17T18:30:19.194Z,21.40
2023-04-17T18:32:45.978Z,26.70
2023-04-17T18:35:12.776Z,32.10
2023-04-17T18:37:42.787Z,25.50
2023-04-17T18:40:10.568Z,19.20
2023-04-17T18:42:37.589Z,26.50
2023-04-17T18:45:05.241Z,22.10
2023-04-17T18:47:32.075Z,18.60
2023-04-17T18:49:58.994Z,28.50
2023-04-17T18:52:26.166Z,16.20
2023-04-17T18:54:53.034Z,21.70
2023-04-17T18:57:19.826Z,20.80
2023-04-17T18:59:46.600Z,19.70
2023-04-17T19:02:13.905Z,22.90
2023-04-17T19:04:40.771Z,32.00
2023-04-17T19:07:07.708Z,26.40
2023-04-17T19:09:35.780Z,33.90
2023-04-17T19:12:02.778Z,20.00
2023-04-17T19:14:33.835Z,42.10
2023-04-17T19:17:00.896Z,29.20
2023-04-17T19:19:27.594Z,50.40
2023-04-17T19:21:54.374Z,29.20
2023-04-17T19:24:21.169Z,24.30
2023-04-17T19:26:48.276Z,18.80
2023-04-17T19:29:16.634Z,12.50
2023-04-17T19:31:44.342Z,13.10
2023-04-17T19:34:11.102Z,9.10
2023-04-17T19:36:37.862Z,25.10
2023-04-17T19:39:04.685Z,15.50
2023-04-17T19:41:31.599Z,36.60
2023-04-17T19:43:58.403Z,42.90
2023-04-17T19:46:26.976Z,22.40
2023-04-17T19:48:53.863Z,70.60
2023-04-17T19:51:20.749Z,59.50
2023-04-17T19:53:47.720Z,20.10
2023-04-17T19:56:15.107Z,17.00
2023-04-17T19:58:42.203Z,18.80
2023-04-17T20:01:09.088Z,15.70
2023-04-17T20:03:37.932Z,14.30
2023-04-17T20:06:05.145Z,14.80
2023-04-17T20:08:32.160Z,12.80
2023-04-17T20:10:59.240Z,13.50
2023-04-17T20:13:27.623Z,11.50
2023-04-17T20:15:54.659Z,10.10
2023-04-17T20:18:21.727Z,11.40
2023-04-17T20:20:48.589Z,13.60
2023-04-17T20:23:15.464Z,13.60
2023-04-17T20:25:42.223Z,12.50
2023-04-17T20:28:09.202Z,11.30
2023-04-17T20:30:36.180Z,10.10
2023-04-17T20:33:03.555Z,14.80
2023-04-17T20:35:30.368Z,11.10
2023-04-17T20:37:57.170Z,10.60
2023-04-17T20:40:24.177Z,12.50
2023-04-17T20:42:51.047Z,10.60
2023-04-17T20:45:17.970Z,9.50
2023-04-17T20:50:15.201Z,11.90
2023-04-17T20:52:42.066Z,11.80
2023-04-17T20:55:08.974Z,10.60
2023-04-17T20:57:35.944Z,10.90
2023-04-17T21:00:03.679Z,11.20
2023-04-17T21:02:32.620Z,14.90
2023-04-17T21:05:00.267Z,13.80
2023-04-17T21:07:27.121Z,16.10
2023-04-17T21:09:53.969Z,14.80
2023-04-17T21:12:20.762Z,13.60
2023-04-17T21:14:47.482Z,10.00
2023-04-17T21:17:14.345Z,9.00
2023-04-17T21:19:41.165Z,9.80
2023-04-17T21:22:07.960Z,16.10
2023-04-17T21:24:34.829Z,11.50
2023-04-17T21:27:02.019Z,10.30
2023-04-17T21:29:28.877Z,12.80
2023-04-17T21:31:56.278Z,9.60
2023-04-17T21:34:24.086Z,12.90
2023-04-17T21:36:52.909Z,8.30
2023-04-17T21:39:20.970Z,9.40
2023-04-17T21:41:47.878Z,13.90
2023-04-17T21:44:15.083Z,9.00
2023-04-17T21:46:45.549Z,10.20
2023-04-17T21:49:12.360Z,10.40
2023-04-17T21:51:39.364Z,7.00
2023-04-17T21:54:07.389Z,7.90
2023-04-17T21:56:34.078Z,6.60
2023-04-17T21:59:01.150Z,9.60
2023-04-17T22:01:28.026Z,10.10
2023-04-17T22:03:55.018Z,10.20
2023-04-17T22:06:22.192Z,9.90
2023-04-17T22:08:48.980Z,9.10
2023-04-17T22:11:15.711Z,12.20
2023-04-17T22:13:44.428Z,9.70
2023-04-17T22:16:11.155Z,7.70
2023-04-17T22:18:37.876Z,10.00
2023-04-17T22:21:05.467Z,6.30
2023-04-17T22:23:32.192Z,5.60
2023-04-17T22:25:58.895Z,7.80
2023-04-17T22:28:29.503Z,5.50
2023-04-17T22:30:57.690Z,5.60
2023-04-17T22:33:25.562Z,5.40
2023-04-17T22:35:52.545Z,5.30
2023-04-17T22:38:20.624Z,9.50
2023-04-17T22:40:47.621Z,7.60
2023-04-17T22:43:14.901Z,6.70
2023-04-17T22:45:42.812Z,6.40
2023-04-17T22:48:09.547Z,7.30
2023-04-17T22:50:37.773Z,6.20
2023-04-17T22:53:05.201Z,9.00
2023-04-17T22:55:32.988Z,7.70
2023-04-17T22:58:01.920Z,8.00
2023-04-17T23:00:30.895Z,5.70
2023-04-17T23:02:57.844Z,9.90
2023-04-17T23:05:24.797Z,14.10
2023-04-17T23:07:51.781Z,9.40
2023-04-17T23:10:19.625Z,7.20
2023-04-17T23:12:46.413Z,7.20
2023-04-17T23:15:13.275Z,8.30
2023-04-17T23:17:40.121Z,6.90
2023-04-17T23:20:07.400Z,7.30
2023-04-17T23:22:34.214Z,6.10
2023-04-17T23:25:01.006Z,7.60
2023-04-17T23:27:27.891Z,6.30
2023-04-17T23:29:54.626Z,7.50
2023-04-17T23:32:21.544Z,7.20
2023-04-17T23:34:48.299Z,9.00
2023-04-17T23:37:15.595Z,8.90
2023-04-17T23:39:42.324Z,10.30
2023-04-17T23:42:09.178Z,12.30
2023-04-17T23:44:35.973Z,11.60
2023-04-17T23:47:03.614Z,10.20
2023-04-17T23:49:30.618Z,8.80
2023-04-17T23:51:57.376Z,8.40
2023-04-17T23:54:24.187Z,7.40
2023-04-17T23:56:50.971Z,8.30
2023-04-17T23:59:17.792Z,8.00
